Time;durP1;ratioP1;P1;durP2;ratioP2;P2;SDS_P1;SDS_P2;PMS_P1;PMS_P2;Temp;Humidity;BMP_temperature;BMP_pressure;BME280_temperature;BME280_humidity;BME280_pressure;Samples;Min_cycle;Max_cycle;Signal;HPM_P1;HPM_P2
2023/09/01 00:01:30;;;;;;;;;3.00;1.00;;;;;22.84;53.69;100750.66;4959236;28;45247;-41
2023/09/01 00:03:56;;;;;;;;;1.25;1.00;;;;;22.83;53.83;100749.81;4958789;28;52009;-41
2023/09/01 00:06:21;;;;;;;;;1.00;1.00;;;;;22.84;53.51;100746.22;4959456;28;45712;-42
2023/09/01 00:08:46;;;;;;;;;1.00;1.00;;;;;22.82;53.94;100750.75;4958894;28;46120;-42
2023/09/01 00:11:12;;;;;;;;;1.00;1.00;;;;;22.81;54.30;100751.69;4959379;28;45359;-41
2023/09/01 00:13:37;;;;;;;;;1.00;1.00;;;;;22.81;53.48;100735.84;4959181;28;45295;-41
2023/09/01 00:16:03;;;;;;;;;1.00;1.00;;;;;22.79;53.36;100740.38;4959328;28;45514;-42
2023/09/01 00:18:30;;;;;;;;;1.00;1.00;;;;;22.80;54.06;100747.38;4958783;28;46302;-43
2023/09/01 00:21:04;;;;;;;;;1.00;1.00;;;;;22.81;53.66;100738.50;4958960;28;45398;-42
2023/09/01 00:23:30;;;;;;;;;1.00;1.00;;;;;22.79;54.00;100743.03;4958761;28;45308;-42
2023/09/01 00:25:58;;;;;;;;;1.00;1.00;;;;;22.80;54.12;100742.09;4959083;28;45390;-42
2023/09/01 00:28:24;;;;;;;;;1.50;0.00;;;;;22.80;54.10;100742.09;4941198;28;45557;-43
2023/09/01 00:30:54;;;;;;;;;2.00;1.00;;;;;22.81;53.83;100737.66;4958770;28;45917;-44
2023/09/01 00:33:20;;;;;;;;;4.00;1.00;;;;;22.81;53.87;100741.13;4958845;28;45359;-45
2023/09/01 00:35:45;;;;;;;;;0.00;0.00;;;;;22.81;53.59;100741.13;4959076;28;45331;-42
2023/09/01 00:38:10;;;;;;;;;1.00;1.00;;;;;22.82;53.61;100742.00;4958551;28;46469;-45
2023/09/01 00:40:36;;;;;;;;;0.75;0.75;;;;;22.81;53.70;100749.06;4958654;28;45392;-41
2023/09/01 00:43:01;;;;;;;;;1.00;1.00;;;;;22.80;53.65;100742.09;4958110;28;55313;-45
2023/09/01 00:45:27;;;;;;;;;0.00;0.00;;;;;22.80;53.67;100743.88;4958753;28;45383;-44
2023/09/01 00:47:52;;;;;;;;;0.75;0.25;;;;;22.78;53.73;100741.34;4958223;28;46248;-44
2023/09/01 00:50:18;;;;;;;;;0.75;0.75;;;;;22.79;53.55;100745.66;4958613;28;45327;-44
2023/09/01 00:52:43;;;;;;;;;0.25;0.25;;;;;22.79;53.71;100748.31;4958637;28;45409;-44
2023/09/01 00:55:09;;;;;;;;;1.50;0.75;;;;;22.80;54.12;100755.28;4958759;28;45594;-42
2023/09/01 00:57:34;;;;;;;;;1.00;1.00;;;;;22.80;53.62;100746.53;4958446;28;46283;-45
2023/09/01 01:00:00;;;;;;;;;1.00;0.75;;;;;22.80;53.73;100752.66;4957720;28;62122;-45
2023/09/01 01:02:26;;;;;;;;;1.50;1.00;;;;;22.80;53.93;100749.19;4958391;28;45494;-41
2023/09/01 01:04:53;;;;;;;;;0.00;0.00;;;;;22.79;54.12;100748.31;4958516;28;45407;-44
2023/09/01 01:07:26;;;;;;;;;1.00;1.00;;;;;22.80;53.86;100750.00;4958504;28;46399;-42
2023/09/01 01:09:51;;;;;;;;;2.25;1.00;;;;;22.78;53.58;100746.63;4957972;28;45396;-41
2023/09/01 01:12:48;;;;;;;;;2.00;1.00;;;;;22.79;54.05;100743.03;4957347;28;45393;-42
2023/09/01 01:15:15;;;;;;;;;0.75;0.75;;;;;22.78;53.55;100741.34;4958350;28;45702;-42
2023/09/01 01:17:43;;;;;;;;;0.00;0.00;;;;;22.80;53.69;100743.88;4958189;28;45517;-42
2023/09/01 01:20:15;;;;;;;;;1.25;1.00;;;;;22.79;53.71;100743.03;4957996;28;45789;-42
2023/09/01 01:22:47;;;;;;;;;0.00;0.00;;;;;22.80;53.53;100738.59;4957883;28;45508;-42
2023/09/01 01:25:13;;;;;;;;;1.00;1.00;;;;;22.79;53.79;100740.38;4958327;28;45168;-42
2023/09/01 01:27:42;;;;;;;;;0.00;0.00;;;;;22.80;53.94;100730.69;4940585;28;46559;-42
2023/09/01 01:30:09;;;;;;;;;0.50;0.50;;;;;22.80;53.74;100736.78;4957816;28;45319;-43
2023/09/01 01:32:35;;;;;;;;;0.75;0.75;;;;;22.79;53.47;100737.75;4957606;28;45282;-43
2023/09/01 01:35:22;;;;;;;;;0.00;0.00;;;;;22.80;53.62;100733.31;4958113;28;45354;-41
2023/09/01 01:37:57;;;;;;;;;2.75;0.00;;;;;22.79;54.11;100731.63;4958026;28;46104;-44
2023/09/01 01:40:24;;;;;;;;;0.25;0.25;;;;;22.79;53.46;100732.47;4957816;28;45900;-46
2023/09/01 01:42:51;;;;;;;;;0.00;0.00;;;;;22.79;53.58;100731.63;4958361;28;45315;-42
2023/09/01 01:45:21;;;;;;;;;1.00;1.00;;;;;22.78;53.61;100728.13;4958041;28;45691;-42
2023/09/01 01:47:51;;;;;;;;;1.25;0.75;;;;;22.77;53.74;100723.78;4957982;28;47006;-41
2023/09/01 01:50:17;;;;;;;;;0.50;0.00;;;;;22.79;53.49;100726.34;4957611;28;45390;-42
2023/09/01 01:52:42;;;;;;;;;1.00;1.00;;;;;22.78;53.83;100725.47;4957613;28;45310;-43
2023/09/01 01:55:08;;;;;;;;;1.00;1.00;;;;;22.78;53.41;100729.94;4956010;28;50951;-40
2023/09/01 01:57:34;;;;;;;;;0.00;0.00;;;;;22.78;53.88;100724.66;4957458;28;46580;-42
2023/09/01 01:59:59;;;;;;;;;1.00;1.00;;;;;22.75;53.33;100722.19;4956734;28;45350;-41
2023/09/01 02:02:24;;;;;;;;;2.00;1.50;;;;;22.75;53.83;100725.72;4957569;28;45291;-41
2023/09/01 02:04:50;;;;;;;;;1.00;1.00;;;;;22.74;53.61;100721.38;4957559;28;45354;-42
2023/09/01 02:07:16;;;;;;;;;1.00;0.75;;;;;22.72;54.06;100719.75;4957237;28;47139;-43
2023/09/01 02:09:41;;;;;;;;;0.00;0.00;;;;;22.73;53.92;100726.72;4956018;28;45893;-44
2023/09/01 02:12:07;;;;;;;;;2.00;0.00;;;;;22.73;53.82;100718.81;4957390;28;45290;-44
2023/09/01 02:14:36;;;;;;;;;1.00;1.00;;;;;22.73;53.84;100714.38;4956248;28;45390;-43
2023/09/01 02:17:03;;;;;;;;;0.50;0.50;;;;;22.73;53.39;100713.53;4957087;28;46155;-42
2023/09/01 02:19:28;;;;;;;;;0.50;0.50;;;;;22.74;53.45;100715.22;4957093;28;45288;-42
2023/09/01 02:21:53;;;;;;;;;0.00;0.00;;;;;22.73;53.93;100717.03;4957333;28;45865;-43
2023/09/01 02:24:19;;;;;;;;;0.50;0.00;;;;;22.74;53.51;100717.84;4957860;28;45376;-43
2023/09/01 02:26:44;;;;;;;;;0.50;0.50;;;;;22.73;53.49;100716.16;4957091;28;45356;-42
2023/09/01 02:29:09;;;;;;;;;1.00;1.00;;;;;22.73;53.59;100722.31;4957043;28;45355;-43
2023/09/01 02:31:35;;;;;;;;;0.00;0.00;;;;;22.73;53.76;100722.31;4955596;28;50791;-41
2023/09/01 02:34:00;;;;;;;;;0.00;0.00;;;;;22.74;53.65;100724.00;4957421;28;45455;-43
2023/09/01 02:36:28;;;;;;;;;2.50;1.25;;;;;22.72;53.57;100717.97;4957005;28;46147;-42
2023/09/01 02:38:54;;;;;;;;;0.00;0.00;;;;;22.73;53.44;100721.44;4957182;28;45234;-42
2023/09/01 02:41:21;;;;;;;;;2.00;0.00;;;;;22.73;53.44;100711.75;4957523;28;45775;-41
2023/09/01 02:43:46;;;;;;;;;0.75;0.75;;;;;22.72;53.59;100715.34;4957123;28;45388;-42
2023/09/01 02:46:12;;;;;;;;;1.50;0.00;;;;;22.70;53.74;100711.94;4956880;28;45969;-42
2023/09/01 02:48:37;;;;;;;;;0.00;0.00;;;;;22.70;53.44;100718.09;4955760;28;45367;-42
2023/09/01 02:51:04;;;;;;;;;1.75;0.00;;;;;22.71;53.58;100713.63;4956975;28;45357;-43
2023/09/01 02:53:30;;;;;;;;;2.00;0.75;;;;;22.70;53.38;100715.44;4939721;28;45497;-44
2023/09/01 02:55:56;;;;;;;;;1.00;1.00;;;;;22.70;53.35;100717.22;4957054;28;45416;-41
2023/09/01 02:58:21;;;;;;;;;0.75;0.75;;;;;22.71;53.32;100729.50;4956539;28;60321;-42
2023/09/01 03:00:46;;;;;;;;;0.25;0.00;;;;;22.69;53.40;100721.69;4956317;28;51846;-41
2023/09/01 03:03:12;;;;;;;;;0.00;0.00;;;;;22.70;53.59;100730.44;4957012;28;45212;-41
2023/09/01 03:05:37;;;;;;;;;1.00;0.00;;;;;22.69;53.29;100726.97;4956727;28;45405;-42
2023/09/01 03:08:05;;;;;;;;;0.00;0.00;;;;;22.71;53.60;100726.84;4956683;28;45321;-43
2023/09/01 03:10:31;;;;;;;;;2.25;0.00;;;;;22.70;53.31;100722.50;4956781;28;45492;-42
2023/09/01 03:12:56;;;;;;;;;0.00;0.00;;;;;22.69;53.59;100726.97;4960337;28;45413;-43
2023/09/01 03:15:22;;;;;;;;;1.00;0.00;;;;;22.68;53.35;100734.97;4959274;28;62960;-43
2023/09/01 03:17:48;;;;;;;;;0.00;0.00;;;;;22.67;53.35;100728.84;4959966;28;45448;-42
2023/09/01 03:20:13;;;;;;;;;1.75;0.00;;;;;22.67;53.33;100717.41;4959953;28;45317;-43
2023/09/01 03:22:38;;;;;;;;;0.00;0.00;;;;;22.67;52.97;100720.94;4960050;28;45690;-43
2023/09/01 03:25:10;;;;;;;;;1.00;0.75;;;;;22.66;53.20;100721.88;4959712;28;45390;-43
2023/09/01 03:27:37;;;;;;;;;0.00;0.00;;;;;22.66;53.27;100718.38;4959758;28;45531;-42
2023/09/01 03:30:03;;;;;;;;;0.50;0.25;;;;;22.65;53.44;100725.47;4959887;28;45347;-43
2023/09/01 03:32:29;;;;;;;;;0.75;0.00;;;;;22.65;53.43;100714.06;4958774;28;45435;-41
2023/09/01 03:34:55;;;;;;;;;0.75;0.75;;;;;22.64;53.22;100715.00;4959771;28;46119;-43
2023/09/01 03:37:22;;;;;;;;;1.00;1.00;;;;;22.60;53.48;100706.41;4959646;28;45330;-42
2023/09/01 03:39:47;;;;;;;;;0.00;0.00;;;;;22.61;53.39;100713.38;4959657;28;45394;-45
2023/09/01 03:42:13;;;;;;;;;1.00;0.00;;;;;22.62;53.34;100709.81;4958157;28;45291;-42
2023/09/01 03:44:38;;;;;;;;;0.25;0.25;;;;;22.63;53.32;100715.94;4959332;28;45985;-42
2023/09/01 03:47:04;;;;;;;;;0.00;0.00;;;;;22.63;53.40;100710.66;4959472;28;45385;-43
2023/09/01 03:49:30;;;;;;;;;0.00;0.00;;;;;22.64;53.22;100713.19;4959608;28;45282;-43
2023/09/01 03:51:55;;;;;;;;;2.00;0.50;;;;;22.65;53.19;100714.06;4960050;28;45219;-44
2023/09/01 03:54:20;;;;;;;;;1.25;1.00;;;;;22.66;53.25;100718.38;4959286;28;46283;-42
2023/09/01 03:56:45;;;;;;;;;1.00;1.00;;;;;22.67;53.16;100717.41;4959354;28;45366;-42
2023/09/01 03:59:11;;;;;;;;;0.00;0.00;;;;;22.67;53.53;100717.41;4959029;28;49501;-43
2023/09/01 04:01:36;;;;;;;;;2.00;0.00;;;;;22.64;53.31;100717.66;4958992;28;53350;-43
2023/09/01 04:04:02;;;;;;;;;0.00;0.00;;;;;22.64;53.28;100707.06;4958998;28;46109;-45
2023/09/01 04:06:27;;;;;;;;;1.00;0.00;;;;;22.65;52.91;100714.06;4959466;28;45287;-46
2023/09/01 04:08:52;;;;;;;;;0.00;0.00;;;;;22.65;53.06;100711.41;4959196;28;45291;-45
2023/09/01 04:11:18;;;;;;;;;1.00;0.25;;;;;22.63;53.00;100706.22;4959383;28;45489;-43
2023/09/01 04:13:43;;;;;;;;;1.00;1.00;;;;;22.64;53.53;100699.16;4958944;28;45475;-42
2023/09/01 04:16:08;;;;;;;;;0.50;0.50;;;;;22.62;53.33;100701.88;4959025;28;45383;-45
2023/09/01 04:18:34;;;;;;;;;0.75;0.75;;;;;22.61;53.08;100702.00;4959148;28;45239;-44
2023/09/01 04:21:00;;;;;;;;;0.75;0.75;;;;;22.61;53.01;100696.72;4959588;28;45652;-44
2023/09/01 04:23:25;;;;;;;;;0.00;0.00;;;;;22.60;53.25;100695.00;4958018;28;46312;-42
2023/09/01 04:25:50;;;;;;;;;2.50;0.00;;;;;22.58;53.53;100695.13;4958947;28;45414;-42
2023/09/01 04:28:16;;;;;;;;;0.25;0.25;;;;;22.58;53.24;100688.97;4941584;28;45284;-42
2023/09/01 04:30:46;;;;;;;;;2.00;0.75;;;;;22.56;53.35;100691.72;4959115;28;45865;-42
2023/09/01 04:33:12;;;;;;;;;1.00;1.00;;;;;22.52;53.54;100691.09;4958658;28;46442;-43
2023/09/01 04:35:38;;;;;;;;;0.00;0.00;;;;;22.52;53.55;100698.16;4958640;28;45454;-44
2023/09/01 04:38:04;;;;;;;;;0.25;0.25;;;;;22.51;53.50;100692.03;4958807;28;45387;-40
2023/09/01 04:40:30;;;;;;;;;0.50;0.00;;;;;22.53;53.37;100699.84;4941859;28;45596;-40
2023/09/01 04:42:56;;;;;;;;;0.50;0.50;;;;;22.53;53.35;100706.00;4958615;28;46862;-40
2023/09/01 04:45:22;;;;;;;;;0.00;0.00;;;;;22.54;53.64;100702.38;4958533;28;45261;-41
2023/09/01 04:47:48;;;;;;;;;1.00;1.00;;;;;22.56;53.43;100702.28;4941188;28;45382;-43
2023/09/01 04:50:13;;;;;;;;;1.00;1.00;;;;;22.55;53.18;100696.16;4958836;28;45536;-43
2023/09/01 04:52:39;;;;;;;;;0.00;0.00;;;;;22.54;53.66;100699.75;4958495;28;45504;-42
2023/09/01 04:55:04;;;;;;;;;0.00;0.00;;;;;;;;4958497;28;45351;-42
2023/09/01 04:57:30;;;;;;;;;1.00;1.00;;;;;22.55;53.52;100704.06;4941452;28;45389;-44
2023/09/01 04:59:56;;;;;;;;;1.50;1.00;;;;;22.53;53.56;100706.00;4958699;28;45367;-42
2023/09/01 05:02:21;;;;;;;;;1.00;1.00;;;;;22.53;53.18;100711.28;4958153;28;47334;-44
2023/09/01 05:04:47;;;;;;;;;0.00;0.00;;;;;22.53;53.88;100708.63;4957928;28;50260;-43
2023/09/01 05:07:12;;;;;;;;;1.00;1.00;;;;;22.53;53.50;100708.63;4958204;28;45299;-42
2023/09/01 05:09:37;;;;;;;;;0.00;0.00;;;;;22.53;53.53;100703.34;4958560;28;45558;-44
2023/09/01 05:12:03;;;;;;;;;1.50;1.00;;;;;22.52;53.86;100706.06;4956846;28;56751;-45
2023/09/01 05:14:29;;;;;;;;;1.00;0.25;;;;;22.52;53.59;100711.34;4958029;28;45414;-44
2023/09/01 05:16:56;;;;;;;;;3.00;2.00;;;;;22.48;53.72;100702.78;4958259;28;45430;-44
2023/09/01 05:19:21;;;;;;;;;0.75;0.00;;;;;22.48;53.33;100705.44;4957157;28;45569;-45
2023/09/01 05:21:48;;;;;;;;;2.00;1.00;;;;;22.49;53.52;100712.41;4957898;28;45236;-44
2023/09/01 05:24:13;;;;;;;;;0.75;0.75;;;;;22.48;53.82;100710.72;4957847;28;45586;-44
2023/09/01 05:26:38;;;;;;;;;2.00;1.50;;;;;22.49;53.40;100706.31;4958164;28;45252;-45
2023/09/01 05:29:04;;;;;;;;;1.00;1.00;;;;;22.49;53.45;100701.03;4958612;28;45322;-44
2023/09/01 05:31:29;;;;;;;;;1.00;1.00;;;;;22.48;53.73;100697.50;4957750;28;46966;-44
2023/09/01 05:33:54;;;;;;;;;1.00;1.00;;;;;22.48;53.77;100699.31;4956692;28;52018;-43
2023/09/01 05:36:19;;;;;;;;;0.00;0.00;;;;;22.49;53.69;100703.66;4957963;28;45393;-44
2023/09/01 05:38:45;;;;;;;;;1.00;1.00;;;;;22.49;53.65;100704.50;4957933;28;45491;-44
2023/09/01 05:41:14;;;;;;;;;0.50;0.50;;;;;22.48;53.56;100710.72;4957082;28;68330;-42
2023/09/01 05:43:40;;;;;;;;;0.00;0.00;;;;;22.48;53.92;100710.72;4957722;28;45427;-42
2023/09/01 05:46:05;;;;;;;;;3.00;1.00;;;;;22.48;53.67;100718.66;4958200;28;45363;-43
2023/09/01 05:48:30;;;;;;;;;0.00;0.00;;;;;22.49;53.67;100720.34;4958123;28;45608;-43
2023/09/01 05:50:56;;;;;;;;;1.00;1.00;;;;;22.50;53.48;100724.69;4957743;28;46325;-45
2023/09/01 05:53:21;;;;;;;;;1.00;1.00;;;;;22.51;53.51;100728.16;4957569;28;45181;-42
2023/09/01 05:55:47;;;;;;;;;1.75;1.00;;;;;22.50;53.94;100727.31;4957702;28;45328;-41
2023/09/01 05:58:12;;;;;;;;;1.00;1.00;;;;;22.50;53.38;100729.97;4957786;28;45523;-41
2023/09/01 06:00:37;;;;;;;;;2.00;0.50;;;;;22.51;53.61;100729.00;4957447;28;45962;-42
2023/09/01 06:03:03;;;;;;;;;1.00;1.00;;;;;22.53;53.63;100736.81;4957744;28;45240;-43
2023/09/01 06:05:29;;;;;;;;;1.00;1.00;;;;;22.53;53.80;100742.97;4957571;28;45375;-43
2023/09/01 06:07:54;;;;;;;;;2.25;1.00;;;;;22.55;53.57;100756.91;4957687;28;45465;-42
2023/09/01 06:10:20;;;;;;;;;2.00;1.00;;;;;22.56;53.38;100747.19;4957316;28;45994;-43
2023/09/01 06:12:46;;;;;;;;;0.25;0.25;;;;;22.57;53.17;100750.69;4957484;28;45268;-43
2023/09/01 06:15:11;;;;;;;;;0.50;0.50;;;;;22.57;53.71;100748.03;4957533;28;45351;-41
2023/09/01 06:17:40;;;;;;;;;1.00;0.00;;;;;22.53;53.57;100753.53;4957837;28;45295;-43
2023/09/01 06:20:06;;;;;;;;;0.75;0.75;;;;;22.54;53.77;100763.13;4957372;28;46322;-43
2023/09/01 06:22:35;;;;;;;;;1.50;1.00;;;;;22.53;53.72;100761.47;4957115;28;45673;-41
2023/09/01 06:25:02;;;;;;;;;1.00;1.00;;;;;22.53;53.48;100764.09;4939770;28;45285;-42
2023/09/01 06:27:27;;;;;;;;;0.50;0.50;;;;;22.53;53.91;100758.81;4957367;28;45354;-42
2023/09/01 06:29:55;;;;;;;;;1.00;1.00;;;;;22.53;53.84;100753.53;4957033;28;45488;-41
2023/09/01 06:32:20;;;;;;;;;1.00;1.00;;;;;22.54;53.88;100765.78;4957179;28;45806;-43
2023/09/01 06:34:45;;;;;;;;;2.25;1.00;;;;;22.54;53.93;100765.78;4957121;28;47896;-44
2023/09/01 06:37:11;;;;;;;;;1.00;1.00;;;;;;;;4957429;28;45565;-43
2023/09/01 06:39:36;;;;;;;;;1.33;0.67;;;;;22.57;53.71;100766.53;4957467;28;46354;-44
2023/09/01 06:42:01;;;;;;;;;1.00;0.75;;;;;22.57;53.75;100770.03;4956651;28;54942;-44
2023/09/01 06:44:27;;;;;;;;;0.50;0.50;;;;;22.56;53.60;100770.97;4956981;28;45289;-43
2023/09/01 06:46:52;;;;;;;;;1.00;1.00;;;;;22.57;53.80;100766.53;4960394;28;45223;-41
2023/09/01 06:49:17;;;;;;;;;2.00;0.75;;;;;22.57;53.84;100774.44;4960059;28;51174;-45
2023/09/01 06:51:43;;;;;;;;;0.00;0.00;;;;;22.56;53.50;100765.69;4959134;28;45299;-42
2023/09/01 06:54:08;;;;;;;;;1.00;1.00;;;;;22.57;53.81;100763.88;4960111;28;59604;-41
2023/09/01 06:56:33;;;;;;;;;1.25;1.00;;;;;22.57;53.46;100762.09;4960469;28;45283;-42
2023/09/01 06:58:59;;;;;;;;;0.00;0.00;;;;;22.58;53.79;100765.56;4959951;28;45395;-42
2023/09/01 07:01:27;;;;;;;;;1.75;0.75;;;;;22.59;53.73;100767.28;4960059;28;45331;-43
2023/09/01 07:03:53;;;;;;;;;0.00;0.00;;;;;22.58;54.01;100771.72;4960108;28;45453;-45
2023/09/01 07:06:18;;;;;;;;;0.00;0.00;;;;;22.59;54.07;100767.28;4960313;28;45602;-43
2023/09/01 07:08:43;;;;;;;;;1.00;1.00;;;;;22.59;53.55;100762.84;4959757;28;49517;-40
2023/09/01 07:11:10;;;;;;;;;1.00;1.00;;;;;22.60;54.16;100768.97;4960374;28;45472;-42
2023/09/01 07:13:36;;;;;;;;;0.75;0.75;;;;;22.59;53.86;100765.50;4959674;28;45232;-44
2023/09/01 07:16:03;;;;;;;;;1.00;1.00;;;;;22.61;53.82;100770.66;4960133;28;45244;-42
2023/09/01 07:18:29;;;;;;;;;2.00;0.50;;;;;22.61;54.06;100771.50;4959620;28;46213;-43
2023/09/01 07:20:59;;;;;;;;;0.00;0.00;;;;;22.61;54.29;100770.66;4959785;28;45420;-41
2023/09/01 07:23:24;;;;;;;;;1.00;1.00;;;;;22.59;54.26;100767.28;4958514;28;45310;-43
2023/09/01 07:25:51;;;;;;;;;2.00;1.00;;;;;22.59;54.19;100772.56;4960084;28;45354;-44
2023/09/01 07:28:16;;;;;;;;;1.00;1.00;;;;;22.59;54.36;100776.06;4959563;28;46400;-45
2023/09/01 07:30:41;;;;;;;;;1.00;1.00;;;;;22.59;54.33;100778.72;4959957;28;45477;-43
2023/09/01 07:33:07;;;;;;;;;1.00;1.00;;;;;22.60;54.58;100784.81;4959759;28;45351;-44
2023/09/01 07:35:32;;;;;;;;;1.50;1.50;;;;;22.59;54.33;100780.47;4958636;28;45268;-42
2023/09/01 07:37:58;;;;;;;;;1.00;1.00;;;;;22.58;54.56;100771.72;4959555;28;46106;-42
2023/09/01 07:40:23;;;;;;;;;0.50;0.50;;;;;22.60;54.69;100780.38;4959403;28;45920;-44
2023/09/01 07:42:49;;;;;;;;;2.25;0.75;;;;;22.58;54.28;100784.94;4959543;28;45242;-42
2023/09/01 07:45:15;;;;;;;;;1.00;1.00;;;;;22.60;54.59;100782.19;4959616;28;45320;-44
2023/09/01 07:47:40;;;;;;;;;0.25;0.25;;;;;22.58;54.68;100776.16;4958352;28;48279;-43
2023/09/01 07:50:07;;;;;;;;;3.00;0.25;;;;;22.59;54.72;100780.47;4959320;28;45431;-44
2023/09/01 07:52:32;;;;;;;;;0.25;0.25;;;;;22.60;54.74;100776.91;4959416;28;45390;-42
2023/09/01 07:54:58;;;;;;;;;1.00;0.00;;;;;22.59;54.88;100772.56;4959546;28;45511;-44
2023/09/01 07:57:23;;;;;;;;;0.50;0.50;;;;;22.60;54.69;100782.19;4958463;28;46024;-44
2023/09/01 07:59:48;;;;;;;;;0.25;0.25;;;;;22.60;54.04;100779.53;4958583;28;59428;-45
2023/09/01 08:02:13;;;;;;;;;1.00;1.00;;;;;22.63;54.92;100784.63;4959160;28;52074;-43
2023/09/01 08:04:39;;;;;;;;;1.00;1.00;;;;;22.63;54.18;100784.63;4959339;28;45381;-41
2023/09/01 08:07:05;;;;;;;;;0.00;0.00;;;;;22.64;54.36;100786.31;4959063;28;46865;-44
2023/09/01 08:09:30;;;;;;;;;3.00;0.75;;;;;22.65;54.52;100798.59;4958995;28;45292;-45
2023/09/01 08:11:55;;;;;;;;;1.00;1.00;;;;;22.65;54.77;100799.44;4959136;28;45403;-45
2023/09/01 08:14:21;;;;;;;;;1.00;0.00;;;;;22.65;54.84;100798.59;4959194;28;45573;-43
2023/09/01 08:16:47;;;;;;;;;0.50;0.00;;;;;22.64;55.03;100799.53;4941413;28;47027;-42
2023/09/01 08:19:13;;;;;;;;;0.25;0.25;;;;;22.65;54.99;100794.16;4959057;28;45446;-43
2023/09/01 08:21:38;;;;;;;;;1.00;1.00;;;;;22.66;55.08;100795.84;4959115;28;45220;-43
2023/09/01 08:24:03;;;;;;;;;1.50;0.25;;;;;22.66;55.04;100800.25;4958982;28;45637;-42
2023/09/01 08:26:29;;;;;;;;;1.00;1.00;;;;;22.65;54.90;100794.16;4958694;28;45550;-43
2023/09/01 08:28:54;;;;;;;;;1.00;0.50;;;;;22.66;54.60;100795.84;4958756;28;45188;-45
2023/09/01 08:31:19;;;;;;;;;1.00;0.25;;;;;22.65;54.58;100791.50;4959069;28;45241;-44
2023/09/01 08:33:45;;;;;;;;;1.00;1.00;;;;;22.66;55.31;100787.06;4959416;28;45282;-44
2023/09/01 08:36:10;;;;;;;;;0.00;0.00;;;;;22.66;55.29;100800.25;4958757;28;46581;-46
2023/09/01 08:38:36;;;;;;;;;1.00;1.00;;;;;22.66;54.64;100792.34;4958692;28;45379;-45
2023/09/01 08:41:05;;;;;;;;;0.75;0.75;;;;;22.66;55.40;100793.19;4958743;28;45380;-43
2023/09/01 08:43:36;;;;;;;;;1.00;1.00;;;;;22.66;55.24;100790.56;4958771;28;45351;-45
2023/09/01 08:46:03;;;;;;;;;0.00;0.00;;;;;22.66;55.42;100797.63;4958473;28;46118;-44
2023/09/01 08:48:30;;;;;;;;;1.00;0.00;;;;;22.66;55.21;100793.19;4941303;28;45840;-46
2023/09/01 08:50:55;;;;;;;;;2.00;1.00;;;;;22.66;55.02;100800.25;4958700;28;45430;-43
2023/09/01 08:53:21;;;;;;;;;1.50;0.50;;;;;22.66;55.09;100805.53;4958852;28;45320;-44
2023/09/01 08:55:48;;;;;;;;;0.50;0.50;;;;;22.65;55.17;100807.34;4958611;28;46369;-42
2023/09/01 08:58:13;;;;;;;;;1.00;1.00;;;;;22.67;55.55;100807.25;4958395;28;45602;-44
2023/09/01 09:00:39;;;;;;;;;2.00;0.50;;;;;22.65;55.05;100803.88;4957282;28;45282;-43
2023/09/01 09:03:05;;;;;;;;;3.50;0.00;;;;;22.66;55.07;100816.97;4958496;28;45592;-43
2023/09/01 09:05:33;;;;;;;;;1.00;1.00;;;;;22.67;55.23;100815.16;4958102;28;46390;-41
2023/09/01 09:08:00;;;;;;;;;1.75;0.00;;;;;22.67;55.41;100816.03;4958237;28;45702;-46
2023/09/01 09:10:39;;;;;;;;;1.50;1.00;;;;;22.67;55.09;100808.09;4958288;28;45450;-44
2023/09/01 09:13:20;;;;;;;;;1.75;1.00;;;;;22.66;55.35;100800.25;4958561;28;45204;-43
2023/09/01 09:15:46;;;;;;;;;2.50;1.00;;;;;22.68;55.64;100801.00;4958402;28;46656;-43
2023/09/01 09:18:28;;;;;;;;;1.25;1.00;;;;;22.69;55.44;100800.06;4958204;28;45226;-44
2023/09/01 09:20:53;;;;;;;;;1.00;1.00;;;;;22.70;55.20;100799.13;4958164;28;45485;-42
2023/09/01 09:23:19;;;;;;;;;2.00;1.00;;;;;22.69;55.47;100800.94;4957730;28;56260;-43
2023/09/01 09:25:44;;;;;;;;;0.25;0.25;;;;;22.72;55.18;100805.16;4957689;28;49008;-43
2023/09/01 09:28:18;;;;;;;;;1.75;1.00;;;;;22.73;55.52;100801.56;4956708;28;45374;-45
2023/09/01 09:30:50;;;;;;;;;1.00;1.00;;;;;22.76;55.03;100814.59;4958081;28;45421;-43
2023/09/01 09:33:26;;;;;;;;;2.00;0.00;;;;;22.76;54.99;100811.09;4958448;28;45358;-43
2023/09/01 09:35:51;;;;;;;;;1.50;1.00;;;;;22.76;55.10;100817.25;4957775;28;46051;-43
2023/09/01 09:38:17;;;;;;;;;2.25;0.75;;;;;22.77;54.80;100810.13;4956991;28;45442;-44
2023/09/01 09:40:55;;;;;;;;;2.50;1.50;;;;;22.78;54.91;100804.75;4957945;28;45348;-43
2023/09/01 09:43:20;;;;;;;;;2.50;1.00;;;;;22.78;54.88;100804.75;4958289;28;45879;-42
2023/09/01 09:45:46;;;;;;;;;4.75;1.00;;;;;22.79;54.87;100800.31;4957669;28;46267;-42
2023/09/01 09:48:13;;;;;;;;;1.00;1.00;;;;;22.81;54.93;100798.44;4956892;28;45371;-44
2023/09/01 09:50:39;;;;;;;;;3.50;1.00;;;;;22.82;54.98;100790.41;4957756;28;45246;-43
2023/09/01 09:53:06;;;;;;;;;1.00;1.00;;;;;22.84;54.77;100806.13;4957866;28;45602;-44
2023/09/01 09:55:33;;;;;;;;;3.00;1.00;;;;;22.83;55.03;100807.94;4957432;28;45424;-44
2023/09/01 09:58:04;;;;;;;;;2.75;1.00;;;;;22.85;54.54;100805.19;4957448;28;45735;-41
2023/09/01 10:00:53;;;;;;;;;1.00;1.00;;;;;22.88;54.58;100801.50;4957558;28;45336;-42
2023/09/01 10:03:23;;;;;;;;;1.00;1.00;;;;;22.90;54.75;100812.81;4958036;28;45394;-41
2023/09/01 10:05:50;;;;;;;;;2.50;1.00;;;;;22.91;54.71;100814.50;4957525;28;47466;-42
2023/09/01 10:08:19;;;;;;;;;2.25;1.00;;;;;22.93;54.43;100820.56;4957345;28;45309;-43
2023/09/01 10:10:45;;;;;;;;;0.75;0.75;;;;;22.93;54.78;100817.91;4957400;28;45386;-44
2023/09/01 10:13:10;;;;;;;;;2.00;1.00;;;;;22.93;53.99;100816.09;4957501;28;45312;-42
2023/09/01 10:15:36;;;;;;;;;1.00;1.00;;;;;22.94;54.09;100820.44;4957166;28;45390;-42
2023/09/01 10:18:09;;;;;;;;;1.50;1.00;;;;;22.95;54.49;100821.31;4957151;28;45721;-42
2023/09/01 10:20:37;;;;;;;;;2.50;1.50;;;;;22.95;54.40;100816.00;4960364;28;45445;-42
2023/09/01 10:23:04;;;;;;;;;1.00;0.75;;;;;22.96;54.41;100813.25;4963699;28;45244;-43
2023/09/01 10:25:30;;;;;;;;;0.25;0.25;;;;;22.97;53.92;100814.13;4963374;28;46102;-43
2023/09/01 10:27:58;;;;;;;;;0.25;0.25;;;;;22.98;53.99;100810.53;4963620;28;45778;-42
2023/09/01 10:30:26;;;;;;;;;2.00;1.00;;;;;22.99;54.12;100812.19;4963894;28;45406;-42
2023/09/01 10:33:21;;;;;;;;;1.00;1.00;;;;;22.98;53.86;100810.53;4964061;28;45545;-44
2023/09/01 10:35:51;;;;;;;;;1.00;1.00;;;;;22.97;54.14;100824.69;4952836;28;46389;-43
2023/09/01 10:38:22;;;;;;;;;3.00;1.00;;;;;22.97;54.09;100824.69;4963450;28;45416;-43
2023/09/01 10:40:48;;;;;;;;;1.00;1.00;;;;;22.96;53.44;100829.13;4963807;28;45371;-43
2023/09/01 10:43:41;;;;;;;;;0.00;0.00;;;;;22.96;53.93;100826.47;4963764;28;45546;-43
2023/09/01 10:46:12;;;;;;;;;1.00;1.00;;;;;22.96;54.09;100823.00;4963386;28;46116;-44
2023/09/01 10:48:47;;;;;;;;;0.00;0.00;;;;;22.96;53.83;100829.13;4963539;28;45649;-43
2023/09/01 10:51:26;;;;;;;;;0.50;0.50;;;;;22.96;53.91;100830.94;4963477;28;45342;-44
2023/09/01 10:53:55;;;;;;;;;1.75;1.00;;;;;22.97;54.17;100824.69;4963903;28;45248;-42
2023/09/01 10:56:21;;;;;;;;;3.00;1.00;;;;;22.98;53.88;100826.41;4962167;28;47645;-44
2023/09/01 10:58:47;;;;;;;;;1.00;1.00;;;;;22.98;53.87;100821.94;4963231;28;45502;-43
2023/09/01 11:01:45;;;;;;;;;2.75;1.00;;;;;22.98;53.95;100816.66;4963321;28;45331;-45
2023/09/01 11:04:13;;;;;;;;;3.00;1.00;;;;;22.98;53.48;100821.94;4930549;28;45424;-42
2023/09/01 11:06:56;;;;;;;;;2.00;1.00;;;;;22.99;53.95;100823.63;4963073;28;46181;-43
2023/09/01 11:09:23;;;;;;;;;1.00;1.00;;;;;22.99;53.46;100815.72;4963466;28;45402;-41
2023/09/01 11:11:51;;;;;;;;;0.50;0.50;;;;;23.00;53.78;100812.13;4963353;28;45378;-43
2023/09/01 11:14:20;;;;;;;;;1.75;1.00;;;;;23.01;53.31;100818.25;4963469;28;45468;-44
2023/09/01 11:16:45;;;;;;;;;1.75;1.00;;;;;23.00;53.83;100819.19;4962945;28;45512;-44
2023/09/01 11:19:11;;;;;;;;;1.00;1.00;;;;;23.01;53.53;100826.16;4962940;28;45398;-44
2023/09/01 11:21:36;;;;;;;;;1.00;0.25;;;;;23.03;53.13;100826.09;4962674;28;57146;-42
2023/09/01 11:24:03;;;;;;;;;0.75;0.75;;;;;23.02;53.39;100833.16;4963252;28;45589;-46
2023/09/01 11:26:29;;;;;;;;;2.00;2.00;;;;;23.02;53.69;100827.88;4962910;28;45675;-45